Terminal Aerodrome Forecast
Issued by NWS

Home | Current Version | Previous Version | Graphics & Text | Print | Product List | Glossary On
Versions: 1 2 3 4 5 6 7 8 9 10 11 12 13 14 15 16 17 18 19 20 21 22 23 24 25 26
000
FTUS45 KGGW 221723
TAFOLF
TAF
KOLF 221723Z 2218/2318 26009KT P6SM VCSH OVC060
     FM222000 26019G27KT P6SM SCT060
     FM222200 27029G42KT P6SM SCT080
     FM230300 28019G30KT P6SM SCT080
     FM231300 28013G22KT P6SM FEW130=

USA.gov is the U.S. government's official web portal to all federal, state and local government web resources and services.